Metar z połowy godziny Komunikat METAR ze strony awiacja.imgw.pl Metar Mil EPLY METAR EPLY 271330Z 24004KT 4000 BR OVC004 00/M01 Q0996 RMK 003 095 8/8=